createdAt,value
2023-04-22T00:02:14.842Z,100481.52
2023-04-22T00:04:47.794Z,100480.61
2023-04-22T00:07:20.351Z,100484.06
2023-04-22T00:09:52.626Z,100482.30
2023-04-22T00:12:25.313Z,100483.12
2023-04-22T00:14:57.481Z,100483.97
2023-04-22T00:17:29.904Z,100478.79
2023-04-22T00:20:02.617Z,100469.28
2023-04-22T00:22:36.798Z,100471.84
2023-04-22T00:25:10.166Z,100476.17
2023-04-22T00:27:42.893Z,100479.62
2023-04-22T00:30:16.452Z,100475.28
2023-04-22T00:32:49.290Z,100475.28
2023-04-22T00:35:21.677Z,100478.73
2023-04-22T00:37:53.954Z,100468.40
2023-04-22T00:40:28.594Z,100475.31
2023-04-22T00:43:04.084Z,100472.72
2023-04-22T00:45:38.156Z,100470.13
2023-04-22T00:48:11.419Z,100471.02
2023-04-22T00:50:44.215Z,100466.69
2023-04-22T00:53:17.905Z,100469.27
2023-04-22T00:55:50.242Z,100469.27
2023-04-22T00:58:27.245Z,100469.28
2023-04-22T01:00:59.870Z,100470.13
2023-04-22T01:03:34.458Z,100462.36
2023-04-22T01:06:07.085Z,100465.81
2023-04-22T01:08:41.060Z,100463.19
2023-04-22T01:11:13.402Z,100469.25
2023-04-22T01:13:45.797Z,100475.26
2023-04-22T01:16:18.683Z,100468.34
2023-04-22T01:18:53.087Z,100468.31
2023-04-22T01:21:25.676Z,100472.58
2023-04-22T01:23:58.368Z,100472.55
2023-04-22T01:26:30.947Z,100473.37
2023-04-22T01:29:05.205Z,100470.75
2023-04-22T01:31:39.148Z,100474.19
2023-04-22T01:34:13.482Z,100475.89
2023-04-22T01:36:45.249Z,100473.30
2023-04-22T01:39:17.645Z,100475.00
2023-04-22T01:41:50.498Z,100475.86
2023-04-22T01:44:22.884Z,100482.70
2023-04-22T01:46:55.802Z,100473.12
2023-04-22T01:49:28.541Z,100476.56
2023-04-22T01:52:01.977Z,100478.27
2023-04-22T01:54:37.970Z,100474.82
2023-04-22T01:57:14.421Z,100467.02
2023-04-22T01:59:47.890Z,100474.78
2023-04-22T02:02:20.880Z,100474.70
2023-04-22T02:04:53.376Z,100469.41
2023-04-22T02:07:26.164Z,100469.36
2023-04-22T02:09:58.724Z,100477.93
2023-04-22T02:12:31.497Z,100477.08
2023-04-22T02:15:04.566Z,100466.69
2023-04-22T02:17:38.076Z,100464.90
2023-04-22T02:20:14.458Z,100469.12
2023-04-22T02:22:47.544Z,100470.73
2023-04-22T02:25:21.366Z,100465.47
2023-04-22T02:27:55.741Z,100463.72
2023-04-22T02:30:29.857Z,100463.72
2023-04-22T02:33:02.924Z,100460.28
2023-04-22T02:35:36.438Z,100462.02
2023-04-22T02:38:09.202Z,100465.46
2023-04-22T02:40:42.634Z,100460.28
2023-04-22T02:43:15.104Z,100469.73
2023-04-22T02:45:47.711Z,100463.62
2023-04-22T02:48:20.755Z,100459.25
2023-04-22T02:50:53.882Z,100451.48
2023-04-22T02:53:27.741Z,100459.25
2023-04-22T02:56:00.456Z,100455.77
2023-04-22T02:58:33.027Z,100460.02
2023-04-22T03:01:06.504Z,100459.08
2023-04-22T03:03:39.695Z,100465.04
2023-04-22T03:06:11.791Z,100460.66
2023-04-22T03:08:44.061Z,100457.16
2023-04-22T03:11:16.728Z,100462.28
2023-04-22T03:13:49.705Z,100465.70
2023-04-22T03:16:24.606Z,100465.70
2023-04-22T03:18:58.149Z,100463.95
2023-04-22T03:21:32.749Z,100464.76
2023-04-22T03:24:06.884Z,100463.05
2023-04-22T03:26:40.109Z,100471.66
2023-04-22T03:29:14.786Z,100474.25
2023-04-22T03:31:48.364Z,100470.86
2023-04-22T03:34:20.983Z,100470.86
2023-04-22T03:36:53.832Z,100476.04
2023-04-22T03:39:26.435Z,100476.04
2023-04-22T03:42:02.231Z,100478.57
2023-04-22T03:44:35.817Z,100481.14
2023-04-22T03:47:10.350Z,100481.16
2023-04-22T03:49:48.279Z,100480.31
2023-04-22T03:52:20.792Z,100486.32
2023-04-22T03:54:59.712Z,100486.32
2023-04-22T03:57:33.061Z,100487.22
2023-04-22T04:00:08.464Z,100494.13
2023-04-22T04:02:47.145Z,100489.86
2023-04-22T04:05:21.936Z,100490.75
2023-04-22T04:07:54.426Z,100484.76
2023-04-22T04:10:29.646Z,100494.30
2023-04-22T04:13:02.831Z,100497.80
2023-04-22T04:15:38.423Z,100493.58
2023-04-22T04:18:11.822Z,100497.08
2023-04-22T04:20:44.256Z,100498.86
2023-04-22T04:23:17.152Z,100497.73
2023-04-22T04:25:50.258Z,100487.77
2023-04-22T04:28:23.510Z,100487.97
2023-04-22T04:30:55.934Z,100488.50
2023-04-22T04:33:28.877Z,100482.62
2023-04-22T04:36:02.063Z,100487.03
2023-04-22T04:38:40.686Z,100487.91
2023-04-22T04:41:14.623Z,100491.12
2023-04-22T04:43:53.110Z,100484.05
2023-04-22T04:46:37.203Z,100484.52
2023-04-22T04:49:12.874Z,100477.37
2023-04-22T04:51:58.628Z,100484.14
2023-04-22T04:54:31.964Z,100478.33
2023-04-22T04:57:10.299Z,100486.12
2023-04-22T04:59:43.326Z,100481.78
2023-04-22T05:02:16.534Z,100477.91
2023-04-22T05:04:50.908Z,100482.98
2023-04-22T05:07:23.798Z,100482.41
2023-04-22T05:09:57.216Z,100481.42
2023-04-22T05:12:30.096Z,100483.78
2023-04-22T05:15:03.019Z,100482.47
2023-04-22T05:17:36.592Z,100480.61
2023-04-22T05:20:10.889Z,100475.94
2023-04-22T05:22:46.286Z,100477.15
2023-04-22T05:25:19.591Z,100474.06
2023-04-22T05:27:59.148Z,100481.03
2023-04-22T05:30:35.016Z,100479.96
2023-04-22T05:33:08.788Z,100468.70
2023-04-22T05:35:41.447Z,100476.59
2023-04-22T05:38:13.968Z,100468.38
2023-04-22T05:40:46.675Z,100465.41
2023-04-22T05:43:21.164Z,100472.72
2023-04-22T05:45:59.732Z,100475.59
2023-04-22T05:48:34.502Z,100479.61
2023-04-22T05:51:09.282Z,100477.00
2023-04-22T05:53:42.185Z,100475.81
2023-04-22T05:56:16.106Z,100475.25
2023-04-22T05:58:48.821Z,100477.91
2023-04-22T06:01:25.201Z,100481.08
2023-04-22T06:04:03.380Z,100474.97
2023-04-22T06:06:38.040Z,100480.39
2023-04-22T06:09:11.246Z,100484.83
2023-04-22T06:11:46.110Z,100483.77
2023-04-22T06:14:18.569Z,100479.91
2023-04-22T06:16:53.432Z,100477.73
2023-04-22T06:19:26.042Z,100476.63
2023-04-22T06:21:58.440Z,100481.14
2023-04-22T06:24:30.895Z,100481.20
2023-04-22T06:27:06.650Z,100488.32
2023-04-22T06:29:39.608Z,100488.25
2023-04-22T06:32:12.634Z,100484.35
2023-04-22T06:34:49.393Z,100476.80
2023-04-22T06:37:22.133Z,100480.80
2023-04-22T06:39:54.718Z,100476.19
2023-04-22T06:42:50.989Z,100470.52
2023-04-22T06:45:23.389Z,100478.07
2023-04-22T06:48:16.129Z,100464.95
2023-04-22T06:51:02.414Z,100461.27
2023-04-22T06:53:35.665Z,100467.61
2023-04-22T06:56:09.107Z,100466.39
2023-04-22T06:58:40.667Z,100469.08
2023-04-22T07:01:13.247Z,100471.62
2023-04-22T07:03:46.860Z,100467.74
2023-04-22T07:06:20.755Z,100472.94
2023-04-22T07:08:56.836Z,100465.16
2023-04-22T07:11:31.688Z,100468.98
2023-04-22T07:14:08.637Z,100459.67
2023-04-22T07:16:41.981Z,100466.91
2023-04-22T07:19:14.428Z,100468.84
2023-04-22T07:21:47.174Z,100471.38
2023-04-22T07:24:19.893Z,100466.77
2023-04-22T07:26:52.459Z,100462.47
2023-04-22T07:29:25.047Z,100471.91
2023-04-22T07:32:05.301Z,100462.34
2023-04-22T07:34:45.767Z,100470.34
2023-04-22T07:37:20.128Z,100465.30
2023-04-22T07:39:52.641Z,100465.38
2023-04-22T07:42:27.851Z,100463.41
2023-04-22T07:45:00.343Z,100459.62
2023-04-22T07:47:39.198Z,100464.13
2023-04-22T07:50:14.733Z,100463.28
2023-04-22T07:52:47.378Z,100458.58
2023-04-22T07:55:19.752Z,100459.44
2023-04-22T07:57:52.388Z,100454.23
2023-04-22T08:00:25.036Z,100458.94
2023-04-22T08:02:59.667Z,100453.30
2023-04-22T08:05:33.225Z,100459.67
2023-04-22T08:08:06.238Z,100455.37
2023-04-22T08:10:41.223Z,100455.06
2023-04-22T08:13:15.849Z,100459.11
2023-04-22T08:15:49.744Z,100462.14
2023-04-22T08:18:22.142Z,100453.60
2023-04-22T08:20:54.649Z,100458.92
2023-04-22T08:23:30.841Z,100450.54
2023-04-22T08:26:04.490Z,100459.92
2023-04-22T08:28:37.970Z,100461.02
2023-04-22T08:31:12.390Z,100462.44
2023-04-22T08:33:44.818Z,100462.59
2023-04-22T08:36:18.014Z,100465.81
2023-04-22T08:38:53.150Z,100459.23
2023-04-22T08:41:26.089Z,100457.64
2023-04-22T08:43:59.291Z,100450.53
2023-04-22T08:46:32.639Z,100446.87
2023-04-22T08:49:05.404Z,100444.70
2023-04-22T08:51:40.479Z,100444.14
2023-04-22T08:54:13.500Z,100444.37
2023-04-22T08:56:48.101Z,100441.58
2023-04-22T08:59:22.356Z,100441.73
2023-04-22T09:01:59.394Z,100435.89
2023-04-22T09:04:32.338Z,100442.12
2023-04-22T09:07:06.054Z,100440.14
2023-04-22T09:09:40.316Z,100441.25
2023-04-22T09:12:13.143Z,100434.92
2023-04-22T09:14:47.357Z,100436.19
2023-04-22T09:17:30.913Z,100432.69
2023-04-22T09:20:07.102Z,100430.86
2023-04-22T09:22:49.895Z,100433.26
2023-04-22T09:25:23.822Z,100427.16
2023-04-22T09:27:57.612Z,100422.67
2023-04-22T09:30:32.168Z,100428.30
2023-04-22T09:33:06.841Z,100425.00
2023-04-22T09:35:41.506Z,100425.00
2023-04-22T09:38:15.216Z,100419.19
2023-04-22T09:40:47.487Z,100414.67
2023-04-22T09:43:22.321Z,100410.30
2023-04-22T09:45:54.644Z,100410.02
2023-04-22T09:48:27.134Z,100403.38
2023-04-22T09:50:59.336Z,100405.03
2023-04-22T09:53:38.579Z,100396.98
2023-04-22T09:56:11.519Z,100398.70
2023-04-22T09:58:46.165Z,100401.09
2023-04-22T10:01:22.613Z,100399.88
2023-04-22T10:03:57.177Z,100399.75
2023-04-22T10:06:32.272Z,100399.52
2023-04-22T10:09:06.943Z,100397.98
2023-04-22T10:11:42.070Z,100397.01
2023-04-22T10:14:15.564Z,100385.68
2023-04-22T10:16:53.302Z,100383.50
2023-04-22T10:19:30.221Z,100386.39
2023-04-22T10:22:05.038Z,100383.47
2023-04-22T10:24:42.207Z,100389.31
2023-04-22T10:27:15.138Z,100385.38
2023-04-22T10:29:50.277Z,100382.30
2023-04-22T10:32:29.483Z,100378.61
2023-04-22T10:35:16.906Z,100377.99
2023-04-22T10:37:53.990Z,100380.19
2023-04-22T10:40:26.676Z,100375.91
2023-04-22T10:43:03.961Z,100381.79
2023-04-22T10:45:38.999Z,100371.39
2023-04-22T10:48:11.514Z,100369.37
2023-04-22T10:50:47.359Z,100369.61
2023-04-22T10:53:41.009Z,100363.56
2023-04-22T10:56:21.341Z,100363.30
2023-04-22T10:58:58.860Z,100358.67
2023-04-22T11:01:38.415Z,100355.97
2023-04-22T11:04:27.551Z,100357.22
2023-04-22T11:07:17.636Z,100352.00
2023-04-22T11:09:53.873Z,100355.64
2023-04-22T11:12:46.943Z,100353.09
2023-04-22T11:15:22.611Z,100354.12
2023-04-22T11:17:56.413Z,100350.03
2023-04-22T11:20:30.772Z,100351.57
2023-04-22T11:23:12.634Z,100350.73
2023-04-22T11:25:45.364Z,100345.08
2023-04-22T11:28:19.366Z,100350.52
2023-04-22T11:30:53.569Z,100346.84
2023-04-22T11:33:26.119Z,100341.12
2023-04-22T11:35:58.922Z,100335.95
2023-04-22T11:38:31.782Z,100335.47
2023-04-22T11:41:05.391Z,100337.88
2023-04-22T11:43:46.930Z,100331.18
2023-04-22T11:46:29.166Z,100332.27
2023-04-22T11:49:16.739Z,100332.63
2023-04-22T11:51:59.987Z,100333.62
2023-04-22T11:54:37.666Z,100331.12
2023-04-22T11:57:14.305Z,100329.70
2023-04-22T11:59:58.152Z,100324.41
2023-04-22T12:02:31.573Z,100324.00
2023-04-22T12:05:05.154Z,100316.39
2023-04-22T12:07:36.396Z,100321.98
2023-04-22T12:10:11.997Z,100311.79
2023-04-22T12:12:44.521Z,100316.51
2023-04-22T12:15:18.828Z,100314.28
2023-04-22T12:17:53.303Z,100315.42
2023-04-22T12:20:25.715Z,100320.02
2023-04-22T12:22:59.232Z,100318.45
2023-04-22T12:25:34.060Z,100317.28
2023-04-22T12:28:06.605Z,100322.37
2023-04-22T12:30:39.426Z,100315.52
2023-04-22T12:33:12.385Z,100307.69
2023-04-22T12:35:47.267Z,100313.36
2023-04-22T12:38:19.709Z,100307.58
2023-04-22T12:40:52.405Z,100303.73
2023-04-22T12:43:24.806Z,100308.69
2023-04-22T12:45:57.554Z,100307.77
2023-04-22T12:48:30.308Z,100300.91
2023-04-22T12:51:03.240Z,100294.83
2023-04-22T12:53:37.681Z,100292.25
2023-04-22T12:56:10.236Z,100291.69
2023-04-22T12:58:42.914Z,100290.45
2023-04-22T13:01:15.604Z,100286.63
2023-04-22T13:03:53.553Z,100280.95
2023-04-22T13:06:27.037Z,100280.95
2023-04-22T13:08:59.462Z,100280.56
2023-04-22T13:14:46.725Z,100278.91
2023-04-22T13:17:19.807Z,100274.91
2023-04-22T13:19:52.274Z,100272.48
2023-04-22T13:22:24.763Z,100269.30
2023-04-22T13:24:57.718Z,100274.50
2023-04-22T13:27:30.408Z,100271.99
2023-04-22T13:30:04.225Z,100269.86
2023-04-22T13:32:35.224Z,100267.44
2023-04-22T13:35:09.696Z,100268.72
2023-04-22T13:37:42.182Z,100270.84
2023-04-22T13:40:15.193Z,100269.67
2023-04-22T13:42:49.716Z,100261.47
2023-04-22T13:45:22.683Z,100265.61
2023-04-22T13:47:57.031Z,100262.54
2023-04-22T13:50:29.539Z,100260.41
2023-04-22T13:53:05.214Z,100262.39
2023-04-22T13:55:39.648Z,100256.12
2023-04-22T13:58:12.338Z,100259.19
2023-04-22T14:00:46.508Z,100256.44
2023-04-22T14:03:19.686Z,100256.09
2023-04-22T14:05:53.681Z,100255.20
2023-04-22T14:08:27.485Z,100261.01
2023-04-22T14:11:00.534Z,100256.39
2023-04-22T14:13:33.429Z,100254.80
2023-04-22T14:16:09.851Z,100255.44
2023-04-22T14:18:45.942Z,100252.05
2023-04-22T14:21:20.770Z,100251.38
2023-04-22T14:23:53.586Z,100247.39
2023-04-22T14:26:26.087Z,100246.45
2023-04-22T14:28:58.627Z,100243.90
2023-04-22T14:31:31.398Z,100244.73
2023-04-22T14:36:35.840Z,100237.98
2023-04-22T14:39:08.471Z,100243.21
2023-04-22T14:41:42.025Z,100238.00
2023-04-22T14:44:15.378Z,100240.66
2023-04-22T14:46:47.874Z,100235.76
2023-04-22T14:49:21.518Z,100241.80
2023-04-22T14:51:52.320Z,100231.17
2023-04-22T14:54:25.178Z,100233.83
2023-04-22T14:56:58.919Z,100234.41
2023-04-22T14:59:31.976Z,100224.27
2023-04-22T15:02:05.643Z,100226.47
2023-04-22T15:04:38.327Z,100228.88
2023-04-22T15:07:11.039Z,100231.72
2023-04-22T15:09:44.188Z,100226.09
2023-04-22T15:12:17.073Z,100231.02
2023-04-22T15:14:51.782Z,100227.13
2023-04-22T15:17:25.610Z,100227.41
2023-04-22T15:19:58.462Z,100229.80
2023-04-22T15:22:30.886Z,100229.67
2023-04-22T15:25:04.291Z,100225.87
2023-04-22T15:27:37.632Z,100234.97
2023-04-22T15:30:11.948Z,100230.61
2023-04-22T15:32:44.622Z,100220.28
2023-04-22T15:35:17.366Z,100228.02
2023-04-22T15:37:49.998Z,100226.72
2023-04-22T15:40:22.792Z,100223.67
2023-04-22T15:42:55.673Z,100217.88
2023-04-22T15:45:28.574Z,100215.39
2023-04-22T15:48:01.722Z,100222.84
2023-04-22T15:50:36.828Z,100209.02
2023-04-22T15:53:11.258Z,100218.18
2023-04-22T15:55:44.631Z,100214.92
2023-04-22T15:58:18.590Z,100214.34
2023-04-22T16:00:51.481Z,100215.35
2023-04-22T16:03:24.249Z,100214.00
2023-04-22T16:05:57.217Z,100208.36
2023-04-22T16:08:29.842Z,100215.21
2023-04-22T16:11:02.652Z,100217.41
2023-04-22T16:13:35.346Z,100211.75
2023-04-22T16:16:08.185Z,100208.58
2023-04-22T16:18:44.097Z,100215.84
2023-04-22T16:21:16.974Z,100210.03
2023-04-22T16:23:49.971Z,100212.05
2023-04-22T16:26:22.612Z,100210.69
2023-04-22T16:28:55.804Z,100214.61
2023-04-22T16:31:28.205Z,100205.27
2023-04-22T16:34:02.393Z,100207.56
2023-04-22T16:36:34.955Z,100211.62
2023-04-22T16:39:07.935Z,100213.05
2023-04-22T16:41:41.328Z,100207.33
2023-04-22T16:44:15.412Z,100208.59
2023-04-22T16:46:47.770Z,100210.00
2023-04-22T16:49:20.500Z,100214.97
2023-04-22T16:51:53.101Z,100208.34
2023-04-22T16:54:26.013Z,100206.22
2023-04-22T16:56:58.957Z,100209.32
2023-04-22T16:59:32.272Z,100205.56
2023-04-22T17:02:04.766Z,100207.07
2023-04-22T17:04:38.064Z,100204.14
2023-04-22T17:07:11.293Z,100206.52
2023-04-22T17:09:44.040Z,100212.48
2023-04-22T17:12:16.623Z,100212.25
2023-04-22T17:14:49.778Z,100208.48
2023-04-22T17:17:24.299Z,100203.88
2023-04-22T17:19:57.156Z,100204.70
2023-04-22T17:22:30.055Z,100208.08
2023-04-22T17:25:03.091Z,100205.23
2023-04-22T17:27:35.901Z,100209.30
2023-04-22T17:30:10.559Z,100213.19
2023-04-22T17:32:43.172Z,100211.17
2023-04-22T17:35:16.757Z,100214.25
2023-04-22T17:37:49.114Z,100213.81
2023-04-22T17:40:22.562Z,100213.48
2023-04-22T17:42:54.901Z,100222.80
2023-04-22T17:45:27.693Z,100219.09
2023-04-22T17:48:00.020Z,100223.15
2023-04-22T17:50:35.417Z,100222.72
2023-04-22T17:53:07.690Z,100221.44
2023-04-22T17:55:40.344Z,100231.62
2023-04-22T17:58:12.805Z,100235.80
2023-04-22T18:00:46.576Z,100231.99
2023-04-22T18:03:20.486Z,100226.30
2023-04-22T18:05:52.763Z,100235.56
2023-04-22T18:08:25.208Z,100236.97
2023-04-22T18:11:02.505Z,100236.52
2023-04-22T18:13:35.662Z,100236.13
2023-04-22T18:16:09.357Z,100237.37
2023-04-22T18:18:42.427Z,100240.23
2023-04-22T18:21:15.316Z,100239.58
2023-04-22T18:23:48.136Z,100242.41
2023-04-22T18:26:20.854Z,100248.77
2023-04-22T18:28:53.334Z,100243.70
2023-04-22T18:31:26.022Z,100250.97
2023-04-22T18:33:58.616Z,100251.19
2023-04-22T18:36:31.083Z,100257.55
2023-04-22T18:39:06.630Z,100253.41
2023-04-22T18:41:40.184Z,100260.56
2023-04-22T18:44:12.836Z,100261.64
2023-04-22T18:46:45.598Z,100262.75
2023-04-22T18:49:17.962Z,100250.86
2023-04-22T18:51:50.977Z,100266.19
2023-04-22T18:54:24.367Z,100266.52
2023-04-22T18:56:58.929Z,100258.78
2023-04-22T18:59:31.564Z,100264.12
2023-04-22T19:02:05.228Z,100258.09
2023-04-22T19:04:39.349Z,100266.05
2023-04-22T19:07:11.087Z,100264.47
2023-04-22T19:09:44.385Z,100269.06
2023-04-22T19:12:19.757Z,100268.52
2023-04-22T19:14:54.463Z,100269.64
2023-04-22T19:17:27.588Z,100265.48
2023-04-22T19:20:00.169Z,100263.02
2023-04-22T19:22:32.905Z,100265.68
2023-04-22T19:25:06.699Z,100268.38
2023-04-22T19:27:39.452Z,100267.55
2023-04-22T19:30:15.103Z,100264.17
2023-04-22T19:32:47.663Z,100270.41
2023-04-22T19:35:20.855Z,100267.94
2023-04-22T19:37:53.609Z,100260.19
2023-04-22T19:40:26.380Z,100257.78
2023-04-22T19:43:00.482Z,100261.44
2023-04-22T19:45:33.643Z,100257.30
2023-04-22T19:48:07.602Z,100254.00
2023-04-22T19:50:43.613Z,100252.39
2023-04-22T19:53:17.612Z,100254.23
2023-04-22T19:55:50.256Z,100250.00
2023-04-22T19:58:24.053Z,100250.07
2023-04-22T20:00:57.806Z,100258.81
2023-04-22T20:03:31.395Z,100257.90
2023-04-22T20:06:05.899Z,100258.78
2023-04-22T20:08:42.284Z,100257.02
2023-04-22T20:11:15.654Z,100263.16
2023-04-22T20:13:49.808Z,100252.82
2023-04-22T20:16:23.610Z,100252.01
2023-04-22T20:18:56.752Z,100254.72
2023-04-22T20:21:31.328Z,100250.45
2023-04-22T20:24:06.431Z,100248.81
2023-04-22T20:26:40.678Z,100253.18
2023-04-22T20:29:13.323Z,100250.64
2023-04-22T20:31:47.019Z,100249.00
2023-04-22T20:34:20.352Z,100249.91
2023-04-22T20:36:55.872Z,100253.39
2023-04-22T20:39:30.527Z,100256.06
2023-04-22T20:42:04.181Z,100253.48
2023-04-22T20:44:36.813Z,100251.78
2023-04-22T20:47:09.591Z,100256.20
2023-04-22T20:49:43.289Z,100254.51
2023-04-22T20:52:16.716Z,100256.27
2023-04-22T20:54:55.467Z,100257.17
2023-04-22T20:57:29.090Z,100250.23
2023-04-22T21:00:02.470Z,100245.92
2023-04-22T21:02:38.829Z,100249.43
2023-04-22T21:05:15.165Z,100254.70
2023-04-22T21:07:53.418Z,100254.69
2023-04-22T21:10:27.318Z,100251.27
2023-04-22T21:12:59.811Z,100245.23
2023-04-22T21:15:33.790Z,100247.02
2023-04-22T21:18:08.133Z,100240.09
2023-04-22T21:20:46.860Z,100240.13
2023-04-22T21:23:24.394Z,100245.38
2023-04-22T21:25:58.990Z,100253.22
2023-04-22T21:28:31.810Z,100250.64
2023-04-22T21:31:07.512Z,100253.27
2023-04-22T21:33:40.090Z,100251.56
2023-04-22T21:36:13.997Z,100251.61
2023-04-22T21:38:46.918Z,100250.82
2023-04-22T21:41:20.633Z,100250.00
2023-04-22T21:43:52.945Z,100250.06
2023-04-22T21:46:26.020Z,100256.19
2023-04-22T21:48:58.698Z,100263.20
2023-04-22T21:51:31.728Z,100252.84
2023-04-22T21:54:04.955Z,100261.55
2023-04-22T21:56:38.710Z,100259.85
2023-04-22T21:59:11.168Z,100253.78
2023-04-22T22:01:43.796Z,100257.28
2023-04-22T22:04:16.663Z,100259.88
2023-04-22T22:06:50.173Z,100263.37
2023-04-22T22:09:25.036Z,100255.56
2023-04-22T22:11:57.909Z,100258.19
2023-04-22T22:14:30.148Z,100257.30
2023-04-22T22:17:02.581Z,100252.98
2023-04-22T22:19:37.448Z,100254.75
2023-04-22T22:22:10.717Z,100257.39
2023-04-22T22:24:43.658Z,100258.25
2023-04-22T22:27:16.804Z,100259.14
2023-04-22T22:29:51.700Z,100262.62
2023-04-22T22:32:24.522Z,100270.44
2023-04-22T22:34:56.807Z,100266.99
2023-04-22T22:37:29.681Z,100258.35
2023-04-22T22:40:03.011Z,100259.21
2023-04-22T22:42:36.418Z,100257.52
2023-04-22T22:45:10.813Z,100262.70
2023-04-22T22:47:43.969Z,100260.97
2023-04-22T22:50:16.598Z,100266.19
2023-04-22T22:52:49.930Z,100262.75
2023-04-22T22:55:23.250Z,100262.77
2023-04-22T22:57:55.853Z,100265.35
2023-04-22T23:00:28.424Z,100272.28
2023-04-22T23:03:01.052Z,100268.86
2023-04-22T23:05:36.375Z,100264.51
2023-04-22T23:08:09.019Z,100271.45
2023-04-22T23:10:43.892Z,100261.06
2023-04-22T23:13:16.715Z,100262.80
2023-04-22T23:15:49.094Z,100261.94
2023-04-22T23:18:22.014Z,100257.63
2023-04-22T23:20:55.044Z,100263.70
2023-04-22T23:23:29.569Z,100258.53
2023-04-22T23:26:02.124Z,100261.98
2023-04-22T23:28:35.771Z,100259.41
2023-04-22T23:31:10.513Z,100258.53
2023-04-22T23:33:46.686Z,100255.95
2023-04-22T23:36:22.484Z,100256.81
2023-04-22T23:38:57.762Z,100254.22
2023-04-22T23:41:30.552Z,100252.52
2023-04-22T23:44:04.116Z,100252.51
2023-04-22T23:46:37.134Z,100246.48
2023-04-22T23:49:09.923Z,100245.61
2023-04-22T23:51:42.826Z,100244.77
2023-04-22T23:54:16.344Z,100245.61
2023-04-22T23:56:51.946Z,100245.62
2023-04-22T23:59:25.856Z,100243.90
